Time;durP1;ratioP1;P1;durP2;ratioP2;P2;SDS_P1;SDS_P2;PMS_P1;PMS_P2;Temp;Humidity;BMP_temperature;BMP_pressure;BME280_temperature;BME280_humidity;BME280_pressure;Samples;Min_cycle;Max_cycle;Signal;HPM_P1;HPM_P2
2024/01/13 00:01:29;;;;;;;8.00;3.70;;;;;;;18.43;38.55;102813.13;4967036;28;20045;-74
2024/01/13 00:03:54;;;;;;;7.32;3.58;;;;;;;18.42;38.58;102803.47;4966655;28;20392;-75
2024/01/13 00:06:19;;;;;;;7.88;3.60;;;;;;;18.38;38.62;102810.72;4967452;28;20117;-75
2024/01/13 00:08:45;;;;;;;6.18;3.72;;;;;;;18.38;38.56;102808.06;4967267;28;20108;-74
2024/01/13 00:11:10;;;;;;;6.75;3.90;;;;;;;18.41;38.33;102815.84;4967842;28;20050;-74
2024/01/13 00:13:35;;;;;;;5.93;3.30;;;;;;;18.45;38.37;102813.88;4967300;28;20062;-74
2024/01/13 00:16:00;;;;;;;9.27;3.87;;;;;;;18.37;38.21;102801.06;4967570;28;20129;-73
2024/01/13 00:18:26;;;;;;;6.72;3.63;;;;;;;18.40;38.00;102808.00;4967897;28;20269;-73
2024/01/13 00:20:51;;;;;;;7.45;3.30;;;;;;;18.31;38.04;102775.88;4967402;28;20039;-73
2024/01/13 00:23:16;;;;;;;7.15;3.10;;;;;;;18.38;37.96;102794.03;4967233;28;20038;-73
2024/01/13 00:25:42;;;;;;;6.00;3.03;;;;;;;18.34;37.83;102790.72;4965842;28;20034;-74
2024/01/13 00:28:07;;;;;;;7.40;3.20;;;;;;;18.29;38.06;102782.16;4969193;28;20031;-74
2024/01/13 00:30:32;;;;;;;5.75;3.00;;;;;;;18.24;38.23;102774.47;4970561;28;20060;-74
2024/01/13 00:32:58;;;;;;;5.70;3.20;;;;;;;18.31;37.98;102785.59;4970069;28;20031;-73
2024/01/13 00:35:23;;;;;;;6.43;3.10;;;;;;;18.22;38.02;102770.22;4970802;28;20077;-74
2024/01/13 00:37:48;;;;;;;6.70;3.25;;;;;;;18.23;37.85;102769.25;4968497;28;20373;-74
2024/01/13 00:40:14;;;;;;;5.80;3.27;;;;;;;18.28;38.04;102777.81;4970572;28;20037;-74
2024/01/13 00:42:41;;;;;;;6.57;3.00;;;;;;;18.19;37.87;102773.84;4969890;28;20786;-74
2024/01/13 00:45:07;;;;;;;6.18;3.30;;;;;;;18.27;37.78;102776.94;4970581;28;20106;-74
2024/01/13 00:47:32;;;;;;;6.43;3.40;;;;;;;18.17;37.73;102756.41;4970053;28;20058;-73
2024/01/13 00:49:57;;;;;;;6.70;3.07;;;;;;;18.15;37.76;102748.56;4970499;28;20035;-74
2024/01/13 00:52:23;;;;;;;6.53;3.00;;;;;;;18.13;37.73;102753.91;4970247;28;20359;-74
2024/01/13 00:54:48;;;;;;;5.97;2.95;;;;;;;18.20;37.70;102759.72;4970316;28;20039;-74
2024/01/13 00:57:13;;;;;;;6.32;3.10;;;;;;;18.11;37.34;102753.13;4970400;28;20062;-74
2024/01/13 00:59:39;;;;;;;5.72;2.75;;;;;;;18.18;37.50;102771.28;4969722;28;20077;-74
2024/01/13 01:02:04;;;;;;;5.40;2.70;;;;;;;18.19;37.62;102773.00;4968140;28;20045;-74
2024/01/13 01:04:29;;;;;;;5.63;3.03;;;;;;;18.17;37.56;102775.72;4969304;28;20039;-74
2024/01/13 01:06:54;;;;;;;6.40;2.85;;;;;;;18.12;37.73;102749.56;4968773;28;20089;-75
2024/01/13 01:09:20;;;;;;;6.15;3.00;;;;;;;18.10;37.62;102745.28;4969272;28;20061;-74
2024/01/13 01:11:45;;;;;;;7.10;3.22;;;;;;;18.09;37.35;102735.69;4969323;28;20448;-74
2024/01/13 01:14:10;;;;;;;7.75;2.83;;;;;;;18.08;37.40;102737.44;4969426;28;20034;-73
2024/01/13 01:16:36;;;;;;;5.97;2.80;;;;;;;18.00;37.49;102728.22;4969780;28;20035;-74
2024/01/13 01:19:01;;;;;;;6.38;2.72;;;;;;;18.13;37.64;102748.66;4969019;28;20702;-74
2024/01/13 01:21:26;;;;;;;7.00;3.17;;;;;;;18.09;37.45;102744.44;4969703;28;20093;-74
2024/01/13 01:23:52;;;;;;;6.13;3.13;;;;;;;18.02;37.43;102735.13;4969983;28;20046;-74
2024/01/13 01:26:17;;;;;;;4.88;2.67;;;;;;;18.03;37.50;102728.94;4969755;28;20491;-74
2024/01/13 01:28:42;;;;;;;6.15;2.95;;;;;;;18.09;37.53;102739.16;4969737;28;20117;-74
2024/01/13 01:31:07;;;;;;;5.50;2.88;;;;;;;18.09;37.55;102727.78;4968979;28;20035;-74
2024/01/13 01:33:33;;;;;;;5.05;2.65;;;;;;;18.09;37.74;102733.03;4968523;28;20035;-73
2024/01/13 01:35:59;;;;;;;5.10;2.83;;;;;;;18.08;38.00;102733.97;4968436;28;20092;-73
2024/01/13 01:38:24;;;;;;;6.40;2.88;;;;;;;18.05;37.96;102726.22;4967967;28;20037;-74
2024/01/13 01:40:54;;;;;;;6.43;2.83;;;;;;;18.01;37.88;102711.44;4968885;28;20038;-74
2024/01/13 01:43:19;;;;;;;7.82;2.70;;;;;;;17.96;37.95;102701.16;4969082;28;20041;-74
2024/01/13 01:45:47;;;;;;;5.88;2.80;;;;;;;17.99;38.10;102705.41;4969215;28;20042;-74
2024/01/13 01:48:13;;;;;;;6.47;2.78;;;;;;;17.96;37.82;102703.81;4969234;28;20101;-74
2024/01/13 01:50:39;;;;;;;7.25;2.80;;;;;;;17.99;38.06;102719.47;4969420;28;20503;-74
2024/01/13 01:53:04;;;;;;;5.03;2.55;;;;;;;17.92;37.95;102715.44;4969413;28;20054;-74
2024/01/13 01:55:30;;;;;;;6.57;2.70;;;;;;;17.99;38.32;102721.25;4969360;28;20041;-74
2024/01/13 01:57:58;;;;;;;6.13;2.72;;;;;;;17.97;37.99;102716.03;4968765;28;20030;-74
2024/01/13 02:00:23;;;;;;;6.22;2.97;;;;;;;17.93;38.12;102710.06;4969107;28;20477;-73
2024/01/13 02:02:49;;;;;;;7.95;3.05;;;;;;;17.93;38.10;102702.16;4968273;28;20070;-74
2024/01/13 02:05:15;;;;;;;7.90;3.35;;;;;;;17.95;37.96;102702.09;4969044;28;20034;-73
2024/01/13 02:07:41;;;;;;;7.60;3.15;;;;;;;17.95;38.10;102710.84;4968647;28;20079;-73
2024/01/13 02:10:07;;;;;;;6.15;3.08;;;;;;;17.89;38.09;102702.41;4968847;28;20085;-73
2024/01/13 02:12:32;;;;;;;9.60;3.20;;;;;;;17.87;38.59;102697.16;4968982;28;20038;-74
2024/01/13 02:14:58;;;;;;;8.95;3.00;;;;;;;17.85;38.36;102692.88;4968719;28;20049;-74
2024/01/13 02:17:23;;;;;;;8.27;3.67;;;;;;;17.93;38.42;102706.59;4968815;28;20444;-74
2024/01/13 02:19:49;;;;;;;5.82;2.70;;;;;;;17.83;38.52;102685.09;4968932;28;20110;-74
2024/01/13 02:22:14;;;;;;;8.05;3.25;;;;;;;17.92;38.45;102696.97;4968304;28;20034;-74
2024/01/13 02:24:39;;;;;;;7.05;3.03;;;;;;;17.77;38.31;102665.13;4969030;28;20031;-74
2024/01/13 02:27:04;;;;;;;7.95;2.80;;;;;;;17.90;38.38;102685.66;4965052;28;20734;-74
2024/01/13 02:29:30;;;;;;;7.43;3.00;;;;;;;17.77;38.48;102661.66;4966259;28;20034;-74
2024/01/13 02:31:55;;;;;;;6.90;3.08;;;;;;;17.86;38.28;102676.13;4967836;28;20474;-73
2024/01/13 02:34:20;;;;;;;6.25;2.90;;;;;;;17.79;38.28;102659.78;4968932;28;20027;-73
2024/01/13 02:36:46;;;;;;;7.60;2.92;;;;;;;17.77;38.46;102648.47;4968508;28;20078;-73
2024/01/13 02:39:11;;;;;;;7.38;2.80;;;;;;;17.75;38.44;102648.56;4983438;28;20461;-73
2024/01/13 02:41:37;;;;;;;10.55;3.40;;;;;;;17.74;38.38;102646.84;4968238;28;20081;-73
2024/01/13 02:44:02;;;;;;;8.70;3.20;;;;;;;17.81;38.21;102664.97;4968552;28;20038;-73
2024/01/13 02:46:27;;;;;;;6.10;2.55;;;;;;;17.82;38.07;102666.69;4968067;28;20041;-73
2024/01/13 02:48:54;;;;;;;7.28;3.28;;;;;;;17.73;38.43;102653.03;4968375;28;20053;-74
2024/01/13 02:51:20;;;;;;;7.22;3.08;;;;;;;17.73;38.09;102654.81;4968316;28;20042;-74
2024/01/13 02:53:46;;;;;;;8.35;3.28;;;;;;;17.70;38.17;102642.63;4968337;28;20082;-74
2024/01/13 02:56:11;;;;;;;9.02;3.90;;;;;;;17.72;38.40;102653.97;4967777;28;20082;-74
2024/01/13 02:58:37;;;;;;;8.70;3.05;;;;;;;17.67;38.62;102634.03;4968093;28;20483;-74
2024/01/13 03:01:06;;;;;;;9.23;3.13;;;;;;;17.73;38.76;102642.47;4968200;28;20094;-74
2024/01/13 03:03:35;;;;;;;8.38;3.13;;;;;;;17.77;38.54;102635.28;4967033;28;20392;-75
2024/01/13 03:06:02;;;;;;;7.93;3.03;;;;;;;17.70;38.67;102623.34;4967605;28;20125;-74
2024/01/13 03:08:28;;;;;;;9.73;3.00;;;;;;;17.77;38.52;102632.66;4968127;28;20037;-74
2024/01/13 03:10:53;;;;;;;10.52;3.50;;;;;;;17.67;38.59;102616.41;4967939;28;20023;-74
2024/01/13 03:13:18;;;;;;;9.10;3.10;;;;;;;17.75;38.73;102632.72;4967560;28;20034;-73
2024/01/13 03:15:44;;;;;;;9.10;3.15;;;;;;;17.72;38.57;102619.69;4967869;28;20031;-72
2024/01/13 03:18:09;;;;;;;8.43;3.70;;;;;;;17.72;38.62;102624.97;4967490;28;20475;-73
2024/01/13 03:20:34;;;;;;;9.45;3.60;;;;;;;17.70;38.60;102611.00;4967973;28;20496;-74
2024/01/13 03:23:00;;;;;;;10.23;3.00;;;;;;;17.68;38.66;102598.84;4967535;28;20108;-73
2024/01/13 03:25:25;;;;;;;9.68;3.38;;;;;;;17.61;38.60;102590.41;4967579;28;20066;-73
2024/01/13 03:27:50;;;;;;;10.02;3.13;;;;;;;17.60;38.28;102578.13;4967476;28;20057;-74
2024/01/13 03:30:16;;;;;;;7.80;2.80;;;;;;;17.70;38.44;102595.16;4967056;28;20031;-74
2024/01/13 03:32:43;;;;;;;11.18;3.47;;;;;;;17.66;38.39;102583.09;4966807;28;20785;-74
2024/01/13 03:35:08;;;;;;;7.97;3.17;;;;;;;17.59;38.88;102576.41;4966857;28;20081;-73
2024/01/13 03:37:34;;;;;;;8.27;2.83;;;;;;;17.69;38.40;102585.56;4967062;28;20093;-74
2024/01/13 03:39:59;;;;;;;10.38;3.15;;;;;;;17.63;38.53;102571.88;4982149;28;20461;-74
2024/01/13 03:42:24;;;;;;;8.02;3.10;;;;;;;17.57;38.67;102563.31;4967141;28;20034;-73
2024/01/13 03:44:50;;;;;;;9.30;3.42;;;;;;;17.66;38.47;102575.19;4982242;28;20369;-74
2024/01/13 03:47:15;;;;;;;9.70;3.38;;;;;;;17.55;38.69;102562.56;4965918;28;20062;-74
2024/01/13 03:49:40;;;;;;;8.48;2.70;;;;;;;17.65;38.68;102572.63;4967458;28;20110;-74
2024/01/13 03:52:06;;;;;;;8.93;2.70;;;;;;;17.55;38.48;102544.09;4967408;28;20034;-74
2024/01/13 03:54:31;;;;;;;9.82;3.10;;;;;;;17.59;38.85;102547.41;4967798;28;20046;-74
2024/01/13 03:56:56;;;;;;;8.02;2.97;;;;;;;17.37;38.37;102524.81;4966976;28;20081;-74
2024/01/13 03:59:21;;;;;;;7.70;3.00;;;;;;;17.62;38.79;102562.25;4967708;28;20395;-73
2024/01/13 04:01:47;;;;;;;5.97;2.47;;;;;;;17.52;38.68;102540.78;4968895;28;20118;-74
2024/01/13 04:04:12;;;;;;;8.07;2.97;;;;;;;17.52;38.71;102548.69;4971183;28;20125;-73
2024/01/13 04:06:40;;;;;;;7.22;2.63;;;;;;;17.57;38.93;102555.41;4971366;28;20035;-73
2024/01/13 04:09:06;;;;;;;9.05;2.90;;;;;;;17.59;38.91;102553.56;4971252;28;20617;-74
2024/01/13 04:11:32;;;;;;;9.57;2.70;;;;;;;17.56;38.78;102551.09;4971350;28;20074;-75
2024/01/13 04:13:57;;;;;;;8.18;2.30;;;;;;;17.57;39.06;102550.13;4971054;28;20464;-74
2024/01/13 04:16:22;;;;;;;12.38;2.78;;;;;;;17.59;38.75;102555.31;4970336;28;20478;-74
2024/01/13 04:18:48;;;;;;;9.15;2.45;;;;;;;17.50;38.71;102526.81;4970098;28;20038;-74
2024/01/13 04:21:13;;;;;;;8.45;2.40;;;;;;;17.57;38.85;102536.94;4970319;28;20113;-74
2024/01/13 04:23:38;;;;;;;8.73;2.30;;;;;;;17.27;38.87;102483.22;4970446;28;20034;-73
2024/01/13 04:26:05;;;;;;;10.73;2.53;;;;;;;17.52;38.89;102519.69;4970006;28;20394;-73
2024/01/13 04:28:31;;;;;;;9.52;2.63;;;;;;;17.56;38.95;102532.63;4969779;28;20464;-74
2024/01/13 04:30:56;;;;;;;7.32;2.30;;;;;;;17.54;38.87;102525.72;4970645;28;20058;-74
2024/01/13 04:33:21;;;;;;;7.15;2.50;;;;;;;17.53;38.93;102524.00;4970871;28;20042;-74
2024/01/13 04:35:47;;;;;;;8.30;2.78;;;;;;;17.53;38.76;102521.38;4985636;28;20039;-74
2024/01/13 04:38:12;;;;;;;8.05;2.45;;;;;;;17.46;39.09;102512.09;4969293;28;20119;-74
2024/01/13 04:40:38;;;;;;;8.52;2.17;;;;;;;17.51;39.14;102517.97;4970745;28;20030;-74
2024/01/13 04:43:04;;;;;;;10.23;2.00;;;;;;;17.51;39.09;102521.44;4970754;28;20073;-74
2024/01/13 04:45:30;;;;;;;10.95;2.80;;;;;;;17.49;39.13;102519.84;4968781;28;20483;-74
2024/01/13 04:47:56;;;;;;;7.70;2.25;;;;;;;17.51;39.02;102515.34;4983767;28;20101;-74
2024/01/13 04:50:21;;;;;;;7.15;2.10;;;;;;;17.52;38.93;102519.69;4969455;28;20069;-74
2024/01/13 04:52:46;;;;;;;8.98;2.58;;;;;;;17.44;39.27;102511.34;4969650;28;20082;-75
2024/01/13 04:55:12;;;;;;;8.23;2.53;;;;;;;17.39;39.05;102507.13;4969390;28;20047;-74
2024/01/13 04:57:37;;;;;;;11.40;2.40;;;;;;;17.51;39.10;102523.25;4984366;28;20460;-76
2024/01/13 05:00:04;;;;;;;5.97;2.00;;;;;;;17.38;38.93;102494.88;4969433;28;20034;-74
2024/01/13 05:02:30;;;;;;;5.95;2.00;;;;;;;17.38;39.22;102488.78;4969544;28;20480;-74
2024/01/13 05:04:57;;;;;;;6.68;2.22;;;;;;;17.49;39.14;102512.78;4970390;28;20073;-73
2024/01/13 05:07:22;;;;;;;8.98;2.22;;;;;;;17.38;39.28;102488.78;4969850;28;20073;-75
2024/01/13 05:09:50;;;;;;;7.32;2.35;;;;;;;17.39;39.29;102503.66;4969738;28;20456;-74
2024/01/13 05:12:15;;;;;;;10.90;2.55;;;;;;;17.46;39.23;102520.84;4968107;28;20031;-73
2024/01/13 05:14:40;;;;;;;7.47;2.47;;;;;;;17.37;39.24;102501.09;4970129;28;20037;-73
2024/01/13 05:17:06;;;;;;;8.63;2.00;;;;;;;17.39;39.66;102499.22;4970004;28;20030;-73
2024/01/13 05:19:32;;;;;;;8.35;2.45;;;;;;;17.44;39.14;102500.78;4970134;28;20280;-73
2024/01/13 05:21:57;;;;;;;7.97;2.55;;;;;;;17.43;39.27;102505.19;4970037;28;20030;-73
2024/01/13 05:24:23;;;;;;;6.15;2.30;;;;;;;17.38;39.41;102494.88;4969599;28;20034;-74
2024/01/13 05:26:48;;;;;;;7.97;2.47;;;;;;;17.36;39.42;102495.91;4967391;28;20039;-73
2024/01/13 05:29:13;;;;;;;8.20;2.55;;;;;;;17.34;39.21;102485.44;4969118;28;20783;-73
2024/01/13 05:31:38;;;;;;;6.97;2.33;;;;;;;17.40;39.13;102502.72;4968767;28;20050;-74
2024/01/13 05:34:04;;;;;;;9.30;2.77;;;;;;;17.38;39.22;102491.41;4968456;28;20019;-73
2024/01/13 05:36:29;;;;;;;5.15;2.30;;;;;;;17.34;39.26;102481.94;4967589;28;20607;-74
2024/01/13 05:38:54;;;;;;;6.53;1.70;;;;;;;17.34;39.85;102477.53;4968542;28;20154;-76
2024/01/13 05:41:20;;;;;;;6.50;2.10;;;;;;;17.49;39.44;102498.75;4968739;28;20472;-75
2024/01/13 05:43:45;;;;;;;9.00;2.25;;;;;;;17.45;39.79;102484.03;4968922;28;20030;-73
2024/01/13 05:46:14;;;;;;;6.57;1.85;;;;;;;17.44;39.86;102472.63;4968159;28;20065;-73
2024/01/13 05:48:39;;;;;;;6.07;1.63;;;;;;;17.61;40.02;102500.75;4967326;28;20051;-73
2024/01/13 05:51:04;;;;;;;9.73;1.95;;;;;;;17.58;40.01;102488.56;4967177;28;20491;-75
2024/01/13 05:53:30;;;;;;;4.43;1.50;;;;;;;17.72;40.05;102502.81;4967330;28;20027;-74
2024/01/13 05:55:55;;;;;;;8.30;1.80;;;;;;;17.70;39.76;102486.22;4968316;28;20073;-73
2024/01/13 05:58:20;;;;;;;9.25;2.08;;;;;;;17.77;39.80;102492.88;4968573;28;20492;-74
2024/01/13 06:00:46;;;;;;;4.90;1.65;;;;;;;17.82;39.60;102496.13;4968893;28;20077;-75
2024/01/13 06:03:11;;;;;;;3.88;1.75;;;;;;;17.76;39.65;102477.97;4968684;28;20080;-74
2024/01/13 06:05:38;;;;;;;8.13;1.80;;;;;;;17.79;39.74;102490.16;4969058;28;20070;-76
2024/01/13 06:08:04;;;;;;;6.45;2.08;;;;;;;17.88;39.60;102500.22;4969109;28;20419;-74
2024/01/13 06:10:30;;;;;;;10.13;2.35;;;;;;;17.85;39.55;102487.16;4969086;28;20027;-73
2024/01/13 06:12:56;;;;;;;6.55;2.13;;;;;;;17.91;39.36;102508.84;4967761;28;20035;-75
2024/01/13 06:15:23;;;;;;;6.40;1.60;;;;;;;17.94;39.49;102507.81;4969185;28;20468;-75
2024/01/13 06:17:48;;;;;;;5.38;1.77;;;;;;;17.97;39.23;102498.88;4968545;28;20030;-73
2024/01/13 06:20:14;;;;;;;6.65;1.80;;;;;;;17.90;39.31;102480.75;4967085;28;20053;-73
2024/01/13 06:22:39;;;;;;;6.10;1.70;;;;;;;17.97;39.10;102480.41;4965876;28;20070;-74
2024/01/13 06:25:05;;;;;;;5.75;1.83;;;;;;;17.94;39.20;102469.13;4967410;28;20492;-72
2024/01/13 06:27:30;;;;;;;5.15;1.88;;;;;;;17.93;38.94;102464.75;4968976;28;20036;-72
2024/01/13 06:29:56;;;;;;;5.25;1.60;;;;;;;18.00;39.19;102453.88;4969766;28;20023;-75
2024/01/13 06:32:21;;;;;;;4.53;1.52;;;;;;;17.97;39.15;102444.34;4969632;28;20035;-75
2024/01/13 06:34:46;;;;;;;4.65;1.58;;;;;;;18.06;39.09;102459.66;4969441;28;20077;-74
2024/01/13 06:37:12;;;;;;;4.70;1.88;;;;;;;17.97;39.16;102431.16;4969058;28;20483;-74
2024/01/13 06:39:37;;;;;;;4.95;1.40;;;;;;;18.08;39.10;102443.75;4969800;28;20038;-73
2024/01/13 06:42:06;;;;;;;5.25;1.90;;;;;;;17.99;39.11;102429.28;4969590;28;20027;-73
2024/01/13 06:44:34;;;;;;;4.53;1.70;;;;;;;18.12;39.11;102453.19;4969338;28;20035;-73
2024/01/13 06:47:01;;;;;;;5.80;1.70;;;;;;;18.04;39.07;102434.28;4967675;28;20472;-73
2024/01/13 06:49:27;;;;;;;3.83;1.60;;;;;;;18.02;39.30;102433.53;4969743;28;20034;-73
2024/01/13 06:51:52;;;;;;;5.53;1.70;;;;;;;18.15;39.58;102447.75;4966799;28;20023;-73
2024/01/13 06:54:17;;;;;;;5.43;2.10;;;;;;;18.11;39.55;102443.56;4968896;28;20122;-73
2024/01/13 06:56:43;;;;;;;5.53;1.98;;;;;;;18.09;39.87;102448.94;4969177;28;20019;-72
2024/01/13 06:59:08;;;;;;;5.68;1.80;;;;;;;18.09;39.73;102427.00;4969246;28;20026;-73
2024/01/13 07:01:33;;;;;;;5.70;1.90;;;;;;;18.19;39.87;102424.69;4968957;28;20038;-72
2024/01/13 07:03:59;;;;;;;4.65;1.50;;;;;;;18.19;39.60;102403.56;4968627;28;20034;-73
2024/01/13 07:06:24;;;;;;;5.97;1.80;;;;;;;18.17;39.60;102393.09;4969409;28;20041;-72
2024/01/13 07:08:49;;;;;;;5.18;1.45;;;;;;;18.17;39.57;102394.91;4970007;28;20023;-72
2024/01/13 07:11:15;;;;;;;5.32;2.05;;;;;;;18.25;39.91;102403.22;4969774;28;20026;-73
2024/01/13 07:13:42;;;;;;;4.22;1.85;;;;;;;18.25;39.77;102397.94;4970347;28;20073;-72
2024/01/13 07:16:07;;;;;;;5.07;1.90;;;;;;;18.28;39.97;102398.59;4969922;28;20042;-74
2024/01/13 07:18:32;;;;;;;5.03;1.88;;;;;;;18.19;39.98;102370.09;4969336;28;20110;-74
2024/01/13 07:20:57;;;;;;;4.50;1.50;;;;;;;18.28;39.88;102382.78;4969086;28;20027;-75
2024/01/13 07:23:23;;;;;;;4.45;1.70;;;;;;;18.23;39.85;102379.56;4967602;28;20042;-74
2024/01/13 07:25:48;;;;;;;5.25;1.88;;;;;;;18.21;40.01;102381.41;4969197;28;20054;-74
2024/01/13 07:28:13;;;;;;;7.18;1.98;;;;;;;18.27;39.71;102378.41;4969070;28;20019;-74
2024/01/13 07:30:39;;;;;;;4.45;2.28;;;;;;;18.28;40.00;102379.28;4969996;28;20423;-74
2024/01/13 07:33:04;;;;;;;5.57;1.98;;;;;;;18.27;39.88;102364.38;4968920;28;20031;-73
2024/01/13 07:35:29;;;;;;;5.82;1.95;;;;;;;18.30;40.05;102370.31;4970242;28;20502;-73
2024/01/13 07:37:54;;;;;;;5.90;2.53;;;;;;;18.23;40.03;102341.75;4972854;28;20035;-75
2024/01/13 07:40:20;;;;;;;6.88;2.50;;;;;;;18.26;39.72;102353.00;4974215;28;20038;-72
2024/01/13 07:42:45;;;;;;;7.07;2.83;;;;;;;18.31;39.81;102364.13;4973636;28;20041;-73
2024/01/13 07:45:10;;;;;;;7.60;2.65;;;;;;;18.30;40.20;102375.59;4974074;28;20090;-73
2024/01/13 07:47:36;;;;;;;8.10;2.50;;;;;;;18.31;39.89;102374.69;4971246;28;20063;-71
2024/01/13 07:50:03;;;;;;;6.38;2.70;;;;;;;18.29;40.16;102366.00;4973852;28;20042;-74
2024/01/13 07:52:29;;;;;;;13.88;2.60;;;;;;;18.30;40.26;102365.06;4973473;28;20033;-75
2024/01/13 07:54:54;;;;;;;7.80;2.30;;;;;;;18.23;40.37;102339.97;4973536;28;20027;-73
2024/01/13 07:57:20;;;;;;;6.40;2.30;;;;;;;18.33;40.50;102347.34;4973809;28;20427;-73
2024/01/13 07:59:45;;;;;;;7.18;1.90;;;;;;;18.30;40.78;102329.91;4973316;28;20487;-74
2024/01/13 08:02:10;;;;;;;6.75;2.33;;;;;;;18.27;41.06;102312.44;4972438;28;20452;-74
2024/01/13 08:04:35;;;;;;;8.32;2.78;;;;;;;18.37;41.32;102323.31;4973200;28;20035;-74
2024/01/13 08:07:01;;;;;;;8.13;2.33;;;;;;;18.34;41.34;102320.00;4973473;28;20042;-73
2024/01/13 08:09:26;;;;;;;7.47;2.20;;;;;;;18.38;41.50;102337.38;4973782;28;21393;-73
2024/01/13 08:11:51;;;;;;;6.18;2.30;;;;;;;18.37;41.42;102331.22;4973395;28;20035;-73
2024/01/13 08:14:17;;;;;;;7.65;2.55;;;;;;;18.37;41.72;102311.91;4973569;28;20043;-73
2024/01/13 08:16:42;;;;;;;5.97;2.17;;;;;;;18.44;41.69;102321.19;4971624;28;20551;-73
2024/01/13 08:19:09;;;;;;;6.63;2.33;;;;;;;18.35;41.69;102298.81;4972382;28;20041;-73
2024/01/13 08:21:35;;;;;;;4.53;1.88;;;;;;;18.36;41.66;102304.91;4972398;28;20049;-73
2024/01/13 08:24:00;;;;;;;9.43;2.20;;;;;;;18.42;41.64;102323.91;4971236;28;20121;-74
2024/01/13 08:26:29;;;;;;;8.32;2.33;;;;;;;18.41;41.30;102321.34;4970853;28;20030;-74
2024/01/13 08:28:55;;;;;;;8.45;2.45;;;;;;;18.41;41.51;102303.72;4972936;28;20034;-74
2024/01/13 08:31:20;;;;;;;6.15;2.20;;;;;;;18.42;41.62;102294.00;4975899;28;20027;-74
2024/01/13 08:33:46;;;;;;;7.60;2.20;;;;;;;18.44;42.04;102298.25;4976257;28;20058;-74
2024/01/13 08:36:11;;;;;;;7.38;2.38;;;;;;;18.41;42.30;102294.97;4976328;28;20041;-73
2024/01/13 08:38:36;;;;;;;8.35;2.35;;;;;;;18.52;42.78;102303.09;4975158;28;20069;-73
2024/01/13 08:41:02;;;;;;;7.38;2.60;;;;;;;18.46;42.78;102285.81;4975544;28;20161;-74
2024/01/13 08:43:27;;;;;;;7.72;2.30;;;;;;;18.59;43.21;102304.41;4976963;28;20039;-74
2024/01/13 08:45:52;;;;;;;10.75;2.60;;;;;;;18.52;43.57;102289.00;4975639;28;20027;-74
2024/01/13 08:48:18;;;;;;;8.00;2.72;;;;;;;18.63;43.57;102307.72;4974584;28;20047;-73
2024/01/13 08:50:43;;;;;;;11.75;2.88;;;;;;;18.64;43.63;102317.31;4975183;28;20035;-74
2024/01/13 08:53:08;;;;;;;9.45;2.80;;;;;;;18.64;43.57;102319.97;4974750;28;20456;-74
2024/01/13 08:55:34;;;;;;;10.32;2.60;;;;;;;18.66;43.86;102328.66;4973155;28;20031;-74
2024/01/13 08:57:59;;;;;;;11.43;3.20;;;;;;;18.58;44.24;102325.63;4975283;28;20035;-73
2024/01/13 09:00:25;;;;;;;9.52;2.97;;;;;;;18.66;44.37;102328.66;4975206;28;20252;-74
2024/01/13 09:02:50;;;;;;;10.15;3.05;;;;;;;18.65;44.59;102324.31;4971851;28;20042;-72
2024/01/13 09:05:15;;;;;;;10.77;2.75;;;;;;;18.56;44.56;102303.75;4969632;28;20755;-73
2024/01/13 09:07:41;;;;;;;9.18;2.45;;;;;;;18.69;44.58;102323.16;4969448;28;20459;-73
2024/01/13 09:10:06;;;;;;;10.10;3.38;;;;;;;18.63;44.58;102311.22;4969023;28;20027;-73
2024/01/13 09:12:32;;;;;;;8.77;2.70;;;;;;;18.74;44.11;102330.81;4969565;28;20560;-73
2024/01/13 09:14:57;;;;;;;9.88;2.55;;;;;;;18.72;44.11;102323.00;4969527;28;20369;-73
2024/01/13 09:17:23;;;;;;;8.82;3.08;;;;;;;18.65;43.97;102317.22;4969615;28;20125;-73
2024/01/13 09:19:48;;;;;;;7.65;2.92;;;;;;;18.70;43.93;102326.69;4970029;28;20157;-73
2024/01/13 09:22:14;;;;;;;9.13;2.80;;;;;;;18.57;44.03;102305.44;4968242;28;20074;-73
2024/01/13 09:24:41;;;;;;;9.75;2.75;;;;;;;18.63;44.22;102315.66;4968692;28;20483;-73
2024/01/13 09:27:07;;;;;;;7.55;3.00;;;;;;;18.63;44.33;102313.84;4968950;28;20089;-72
2024/01/13 09:29:32;;;;;;;7.15;2.50;;;;;;;18.63;43.90;102305.94;4969511;28;20035;-72
2024/01/13 09:31:57;;;;;;;10.67;2.90;;;;;;;18.58;44.18;102304.50;4969879;28;20034;-73
2024/01/13 09:34:24;;;;;;;7.55;2.92;;;;;;;18.62;43.69;102303.38;4968664;28;20324;-73
2024/01/13 09:36:50;;;;;;;7.38;2.80;;;;;;;18.61;43.67;102307.81;4968931;28;20407;-73
2024/01/13 09:39:15;;;;;;;10.85;2.80;;;;;;;18.65;44.34;102313.75;4969600;28;20122;-72
2024/01/13 09:41:46;;;;;;;10.52;2.50;;;;;;;18.56;44.02;102303.75;4969635;28;20399;-73
2024/01/13 09:44:22;;;;;;;7.32;2.47;;;;;;;18.65;43.97;102311.13;4983718;28;20042;-73
2024/01/13 09:46:52;;;;;;;8.00;2.58;;;;;;;18.59;43.81;102298.28;4969092;28;20535;-73
2024/01/13 09:49:19;;;;;;;8.07;2.30;;;;;;;18.58;43.89;102296.56;4969221;28;20137;-73
2024/01/13 09:51:46;;;;;;;8.05;2.40;;;;;;;18.59;44.08;102291.19;4968610;28;20073;-73
2024/01/13 09:54:14;;;;;;;7.63;2.40;;;;;;;18.70;43.74;102303.75;4969114;28;20130;-72
2024/01/13 09:56:44;;;;;;;10.25;2.72;;;;;;;18.69;43.74;102296.75;4968342;28;20488;-72
2024/01/13 09:59:11;;;;;;;9.50;2.90;;;;;;;18.59;43.79;102278.00;4925271;28;20062;-72
2024/01/13 10:05:45;;;;;;;8.13;2.67;;;;;;;18.70;43.21;102297.63;4958031;28;20073;-73
2024/01/13 10:08:12;;;;;;;10.88;3.05;;;;;;;18.65;42.93;102292.63;4968132;28;20113;-70
2024/01/13 10:10:38;;;;;;;11.05;2.92;;;;;;;18.72;42.81;102290.47;4968001;28;20506;-71
2024/01/13 10:13:06;;;;;;;8.57;2.60;;;;;;;18.62;42.64;102269.06;4967496;28;20041;-72
2024/01/13 10:15:33;;;;;;;11.45;3.28;;;;;;;18.71;42.71;102279.06;4967779;28;20455;-73
2024/01/13 10:18:00;;;;;;;8.40;2.85;;;;;;;18.69;42.57;102280.91;4968009;28;20023;-72
2024/01/13 10:20:25;;;;;;;8.90;2.58;;;;;;;18.64;42.47;102269.78;4967954;28;20487;-70
2024/01/13 10:22:50;;;;;;;5.45;2.53;;;;;;;18.63;42.11;102262.84;4967878;28;20037;-70
2024/01/13 10:25:16;;;;;;;6.25;2.60;;;;;;;18.74;42.16;102272.72;4966338;28;20038;-72
2024/01/13 10:27:44;;;;;;;8.60;2.75;;;;;;;18.75;42.05;102271.78;4966543;28;20066;-73
2024/01/13 10:30:10;;;;;;;7.10;2.47;;;;;;;18.73;41.95;102266.59;4967171;28;20026;-74
2024/01/13 10:32:36;;;;;;;5.13;2.20;;;;;;;18.69;42.02;102262.44;4966450;28;20519;-73
2024/01/13 10:35:01;;;;;;;6.35;2.33;;;;;;;18.76;42.21;102269.06;4967635;28;20038;-72
2024/01/13 10:37:27;;;;;;;5.90;2.25;;;;;;;18.65;41.61;102240.66;4963932;28;20464;-72
2024/01/13 10:39:53;;;;;;;6.53;2.30;;;;;;;18.71;41.69;102252.66;4967311;28;20045;-74
2024/01/13 10:42:24;;;;;;;5.70;2.47;;;;;;;18.77;41.48;102251.41;4968474;28;20182;-76
2024/01/13 10:44:59;;;;;;;4.97;2.00;;;;;;;18.71;41.56;102249.13;4968487;28;20033;-73
2024/01/13 10:47:49;;;;;;;5.55;2.30;;;;;;;18.78;41.29;102255.75;4967529;28;20125;-73
2024/01/13 10:50:15;;;;;;;6.53;2.20;;;;;;;18.79;41.65;102255.66;4965304;28;20035;-72
2024/01/13 10:53:09;;;;;;;6.85;2.65;;;;;;;18.79;41.34;102250.38;4965687;28;20052;-72
2024/01/13 10:55:37;;;;;;;6.35;2.67;;;;;;;18.76;41.47;102241.81;4967353;28;20074;-72
2024/01/13 10:58:03;;;;;;;7.32;2.65;;;;;;;18.75;41.01;102238.28;4967413;28;20078;-74
2024/01/13 11:00:30;;;;;;;6.95;2.22;;;;;;;18.73;40.95;102226.97;4967585;28;20125;-73
2024/01/13 11:02:58;;;;;;;5.38;2.05;;;;;;;18.70;40.91;102219.25;4963740;28;20050;-75
2024/01/13 11:05:23;;;;;;;5.82;2.40;;;;;;;18.77;40.97;102230.28;4967406;28;20034;-74
2024/01/13 11:07:50;;;;;;;4.28;1.98;;;;;;;18.75;40.40;102221.59;4966908;28;20045;-74
2024/01/13 11:10:22;;;;;;;5.45;2.10;;;;;;;18.78;40.45;102224.91;4966933;28;20035;-74
2024/01/13 11:13:00;;;;;;;5.35;2.15;;;;;;;18.71;40.43;102215.69;4967458;28;20042;-74
2024/01/13 11:15:43;;;;;;;4.82;2.13;;;;;;;18.74;40.40;102225.19;4967862;28;20031;-73
2024/01/13 11:18:12;;;;;;;6.78;2.15;;;;;;;18.71;40.25;102218.31;4966215;28;20038;-74
2024/01/13 11:21:06;;;;;;;3.97;2.00;;;;;;;18.72;40.10;102205.94;4966484;28;20064;-73
2024/01/13 11:23:58;;;;;;;6.03;2.30;;;;;;;18.61;40.33;102194.28;4967503;28;20038;-74